createdAt,value
2018-07-02T00:04:04.829Z,43.40
2018-07-02T00:09:07.978Z,43.56
2018-07-02T00:14:10.991Z,44.39
2018-07-02T00:19:14.006Z,44.62
2018-07-02T00:24:17.066Z,44.91
2018-07-02T00:29:20.345Z,44.91
2018-07-02T00:34:23.497Z,45.42
2018-07-02T00:39:26.513Z,45.30
2018-07-02T00:44:29.605Z,45.54
2018-07-02T00:49:32.650Z,46.47
2018-07-02T00:54:35.677Z,46.76
2018-07-02T00:59:38.736Z,46.54
2018-07-02T01:04:41.822Z,46.22
2018-07-02T01:09:44.801Z,46.14
2018-07-02T01:14:47.829Z,46.28
2018-07-02T01:19:50.838Z,46.81
2018-07-02T01:24:53.861Z,47.36
2018-07-02T01:29:56.849Z,47.09
2018-07-02T01:34:59.920Z,47.26
2018-07-02T01:40:03.881Z,47.59
2018-07-02T01:45:06.893Z,47.42
2018-07-02T01:50:09.901Z,47.60
2018-07-02T01:55:12.893Z,47.45
2018-07-02T02:00:15.905Z,47.76
2018-07-02T02:05:18.985Z,47.74
2018-07-02T02:10:22.028Z,47.49
2018-07-02T02:15:25.102Z,47.79
2018-07-02T02:20:28.174Z,47.94
2018-07-02T02:25:31.231Z,48.10
2018-07-02T02:30:34.289Z,47.98
2018-07-02T02:35:37.348Z,48.05
2018-07-02T02:40:40.389Z,48.77
2018-07-02T02:45:43.451Z,48.57
2018-07-02T02:50:46.461Z,48.27
2018-07-02T02:55:49.448Z,48.72
2018-07-02T03:00:52.489Z,49.25
2018-07-02T03:05:55.513Z,48.63
2018-07-02T03:10:58.536Z,48.37
2018-07-02T03:16:01.600Z,48.25
2018-07-02T03:21:04.672Z,48.65
2018-07-02T03:26:07.701Z,48.83
2018-07-02T03:31:10.737Z,48.98
2018-07-02T03:36:13.744Z,49.37
2018-07-02T03:41:16.745Z,49.25
2018-07-02T03:46:19.737Z,49.23
2018-07-02T03:51:22.786Z,49.61
2018-07-02T03:56:25.965Z,49.13
2018-07-02T04:01:28.942Z,49.45
2018-07-02T04:06:31.961Z,49.67
2018-07-02T04:11:34.976Z,49.84
2018-07-02T04:16:38.277Z,49.87
2018-07-02T04:21:42.230Z,49.69
2018-07-02T04:26:45.379Z,49.66
2018-07-02T04:31:48.373Z,49.38
2018-07-02T04:36:51.392Z,49.01
2018-07-02T04:41:54.392Z,49.25
2018-07-02T04:46:57.456Z,49.58
2018-07-02T04:52:00.533Z,48.63
2018-07-02T04:57:03.548Z,49.09
2018-07-02T05:02:06.649Z,48.43
2018-07-02T05:07:09.669Z,48.09
2018-07-02T05:12:12.669Z,48.58
2018-07-02T05:17:15.689Z,47.51
2018-07-02T05:22:18.793Z,46.40
2018-07-02T05:27:21.757Z,46.16
2018-07-02T05:32:24.768Z,44.73
2018-07-02T05:37:27.870Z,45.01
2018-07-02T05:42:31.386Z,45.54
2018-07-02T05:47:34.505Z,44.68
2018-07-02T05:52:39.081Z,45.07
2018-07-02T05:57:42.129Z,44.94
2018-07-02T06:02:45.129Z,45.27
2018-07-02T06:07:48.588Z,44.35
2018-07-02T06:12:51.552Z,44.05
2018-07-02T06:17:54.520Z,43.15
2018-07-02T06:22:57.517Z,43.68
2018-07-02T06:28:00.514Z,43.65
2018-07-02T06:33:03.677Z,42.81
2018-07-02T06:38:06.666Z,42.20
2018-07-02T06:43:09.647Z,42.68
2018-07-02T06:48:12.603Z,42.36
2018-07-02T06:53:15.709Z,41.40
2018-07-02T06:58:18.708Z,41.36
2018-07-02T07:03:21.701Z,41.90
2018-07-02T07:08:24.703Z,40.18
2018-07-02T07:13:27.783Z,40.39
2018-07-02T07:18:31.141Z,39.77
2018-07-02T07:23:34.185Z,40.15
2018-07-02T07:28:37.237Z,39.78
2018-07-02T07:33:40.224Z,40.00
2018-07-02T07:38:43.228Z,39.06
2018-07-02T07:43:46.202Z,39.59
2018-07-02T07:48:49.178Z,39.82
2018-07-02T07:53:52.169Z,39.24
2018-07-02T07:58:55.148Z,38.09
2018-07-02T08:03:58.347Z,37.37
2018-07-02T08:09:01.345Z,36.48
2018-07-02T08:14:04.421Z,36.31
2018-07-02T08:19:07.516Z,36.68
2018-07-02T08:24:10.537Z,37.69
2018-07-02T08:29:13.673Z,36.55
2018-07-02T08:34:16.669Z,35.86
2018-07-02T08:39:19.698Z,35.88
2018-07-02T08:44:22.717Z,36.04
2018-07-02T08:49:25.748Z,35.47
2018-07-02T08:54:28.793Z,35.56
2018-07-02T08:59:31.939Z,35.14
2018-07-02T09:04:34.972Z,33.00
2018-07-02T09:09:38.037Z,32.45
2018-07-02T09:14:41.117Z,32.04
2018-07-02T09:19:44.133Z,32.85
2018-07-02T09:24:47.294Z,32.65
2018-07-02T09:29:50.333Z,31.97
2018-07-02T09:34:53.329Z,30.45
2018-07-02T09:39:56.321Z,31.52
2018-07-02T09:44:59.384Z,31.90
2018-07-02T09:50:02.471Z,31.51
2018-07-02T09:55:05.745Z,29.54
2018-07-02T10:00:08.932Z,29.20
2018-07-02T10:05:11.956Z,29.52
2018-07-02T10:10:15.001Z,28.24
2018-07-02T10:15:18.006Z,27.61
2018-07-02T10:20:21.121Z,27.91
2018-07-02T10:25:24.173Z,26.73
2018-07-02T10:30:27.161Z,25.94
2018-07-02T10:35:30.157Z,26.46
2018-07-02T10:40:33.189Z,25.59
2018-07-02T10:45:36.189Z,26.04
2018-07-02T10:50:39.182Z,25.09
2018-07-02T10:55:42.279Z,25.89
2018-07-02T11:00:45.256Z,23.74
2018-07-02T11:05:49.264Z,24.83
2018-07-02T11:10:52.340Z,24.37
2018-07-02T11:15:55.372Z,23.80
2018-07-02T11:20:58.389Z,23.93
2018-07-02T11:26:01.431Z,23.88
2018-07-02T11:31:04.481Z,23.63
2018-07-02T11:36:07.492Z,23.51
2018-07-02T11:41:10.484Z,22.29
2018-07-02T11:46:13.489Z,22.12
2018-07-02T11:51:16.501Z,21.58
2018-07-02T11:56:19.506Z,21.57
2018-07-02T12:01:22.503Z,21.70
2018-07-02T12:06:25.555Z,21.86
2018-07-02T12:11:28.576Z,21.26
2018-07-02T12:16:31.581Z,20.90
2018-07-02T12:21:34.965Z,20.97
2018-07-02T12:26:37.979Z,21.59
2018-07-02T12:31:40.973Z,21.39
2018-07-02T12:36:44.017Z,21.47
2018-07-02T12:41:47.024Z,21.12
2018-07-02T12:46:50.096Z,21.62
2018-07-02T12:51:53.101Z,21.20
2018-07-02T12:56:56.130Z,22.33
2018-07-02T13:01:59.141Z,21.93
2018-07-02T13:07:02.214Z,21.46
2018-07-02T13:12:05.355Z,21.33
2018-07-02T13:17:08.385Z,21.98
2018-07-02T13:22:11.445Z,21.52
2018-07-02T13:27:14.449Z,21.51
2018-07-02T13:32:17.532Z,21.72
2018-07-02T13:37:20.590Z,21.97
2018-07-02T13:42:23.637Z,21.36
2018-07-02T13:47:26.689Z,21.43
2018-07-02T13:52:29.729Z,21.47
2018-07-02T13:57:32.812Z,21.47
2018-07-02T14:02:35.853Z,20.90
2018-07-02T14:07:38.885Z,20.48
2018-07-02T14:12:41.942Z,21.32
2018-07-02T14:17:45.127Z,20.58
2018-07-02T14:22:48.183Z,19.41
2018-07-02T14:27:51.451Z,19.72
2018-07-02T14:32:54.620Z,20.03
2018-07-02T14:37:57.636Z,20.60
2018-07-02T14:43:00.727Z,20.15
2018-07-02T14:48:03.909Z,20.21
2018-07-02T14:53:06.911Z,19.47
2018-07-02T14:58:10.000Z,19.20
2018-07-02T15:03:13.046Z,19.66
2018-07-02T15:08:16.105Z,19.49
2018-07-02T15:13:19.153Z,19.81
2018-07-02T15:18:22.314Z,20.11
2018-07-02T15:23:25.398Z,20.80
2018-07-02T15:28:28.522Z,20.22
2018-07-02T15:33:31.723Z,20.44
2018-07-02T15:38:34.888Z,20.11
2018-07-02T15:43:37.880Z,21.48
2018-07-02T15:48:40.863Z,21.16
2018-07-02T15:53:43.883Z,20.62
2018-07-02T15:58:46.908Z,20.61
2018-07-02T16:03:49.973Z,20.43
2018-07-02T16:08:53.149Z,20.37
2018-07-02T16:13:56.220Z,19.58
2018-07-02T16:18:59.204Z,19.17
2018-07-02T16:24:02.369Z,20.44
2018-07-02T16:29:05.781Z,20.32
2018-07-02T16:34:08.785Z,20.86
2018-07-02T16:39:12.336Z,20.68
2018-07-02T16:44:15.517Z,20.92
2018-07-02T16:49:18.558Z,20.33
2018-07-02T16:54:21.596Z,20.48
2018-07-02T16:59:24.606Z,20.20
2018-07-02T17:04:27.694Z,19.43
2018-07-02T17:09:30.901Z,20.15
2018-07-02T17:14:34.001Z,20.39
2018-07-02T17:19:37.136Z,21.65
2018-07-02T17:24:40.129Z,21.72
2018-07-02T17:29:43.280Z,22.83
2018-07-02T17:34:46.368Z,22.78
2018-07-02T17:39:49.425Z,23.54
2018-07-02T17:44:52.469Z,23.20
2018-07-02T17:49:55.532Z,23.04
2018-07-02T17:54:58.590Z,23.20
2018-07-02T18:00:01.633Z,22.90
2018-07-02T18:05:05.196Z,22.84
2018-07-02T18:10:08.306Z,23.09
2018-07-02T18:15:11.376Z,23.71
2018-07-02T18:20:14.411Z,23.60
2018-07-02T18:25:17.613Z,24.77
2018-07-02T18:30:21.356Z,25.50
2018-07-02T18:35:24.551Z,25.07
2018-07-02T18:40:27.785Z,25.25
2018-07-02T18:45:30.803Z,25.69
2018-07-02T18:50:33.956Z,25.77
2018-07-02T18:55:37.061Z,26.88
2018-07-02T19:00:40.377Z,27.59
2018-07-02T19:05:43.453Z,28.73
2018-07-02T19:10:46.689Z,29.10
2018-07-02T19:15:49.733Z,30.61
2018-07-02T19:20:52.765Z,31.37
2018-07-02T19:25:55.757Z,31.01
2018-07-02T19:30:58.793Z,32.68
2018-07-02T19:36:01.835Z,32.97
2018-07-02T19:41:05.005Z,33.95
2018-07-02T19:46:08.085Z,35.04
2018-07-02T19:51:11.069Z,35.49
2018-07-02T19:56:14.124Z,33.68
2018-07-02T20:01:17.191Z,35.12
2018-07-02T20:06:20.306Z,36.97
2018-07-02T20:11:24.332Z,37.15
2018-07-02T20:16:27.469Z,37.41
2018-07-02T20:21:30.939Z,37.38
2018-07-02T20:26:34.277Z,35.23
2018-07-02T20:31:37.423Z,33.53
2018-07-02T20:36:40.543Z,33.43
2018-07-02T20:41:43.629Z,33.37
2018-07-02T20:46:46.698Z,32.87
2018-07-02T20:51:49.822Z,34.17
2018-07-02T20:56:52.882Z,34.86
2018-07-02T21:01:55.973Z,34.84
2018-07-02T21:06:59.074Z,34.99
2018-07-02T21:12:02.145Z,35.56
2018-07-02T21:17:05.229Z,36.74
2018-07-02T21:22:08.791Z,36.35
2018-07-02T21:27:11.812Z,38.00
2018-07-02T21:32:14.834Z,39.80
2018-07-02T21:37:17.865Z,40.67
2018-07-02T21:42:21.025Z,41.00
2018-07-02T21:47:25.107Z,41.37
2018-07-02T21:52:28.273Z,41.06
2018-07-02T21:57:31.377Z,41.50
2018-07-02T22:02:34.413Z,41.21
2018-07-02T22:07:37.873Z,41.91
2018-07-02T22:12:41.582Z,42.02
2018-07-02T22:17:44.579Z,42.43
2018-07-02T22:22:47.601Z,43.19
2018-07-02T22:27:50.605Z,43.73
2018-07-02T22:32:53.663Z,43.68
2018-07-02T22:37:56.737Z,43.97
2018-07-02T22:42:59.742Z,43.87
2018-07-02T22:48:02.773Z,44.09
2018-07-02T22:53:06.045Z,44.61
2018-07-02T22:58:09.045Z,45.38
2018-07-02T23:03:12.069Z,45.79
2018-07-02T23:08:15.065Z,46.21
2018-07-02T23:13:18.077Z,46.75
2018-07-02T23:18:21.110Z,46.92
2018-07-02T23:23:24.137Z,47.21
2018-07-02T23:28:27.208Z,47.25
2018-07-02T23:33:30.225Z,47.83
2018-07-02T23:38:33.249Z,48.53
2018-07-02T23:43:36.318Z,49.20
2018-07-02T23:48:39.345Z,49.15
2018-07-02T23:53:42.360Z,49.32
2018-07-02T23:58:45.349Z,49.34
